Time;durP1;ratioP1;P1;durP2;ratioP2;P2;SDS_P1;SDS_P2;PMS_P1;PMS_P2;Temp;Humidity;BMP_temperature;BMP_pressure;BME280_temperature;BME280_humidity;BME280_pressure;Samples;Min_cycle;Max_cycle;Signal;HPM_P1;HPM_P2
2022/10/01 00:00:23;;;;;;;11.55;7.60;;;11.40;99.90;;;;;;6272563;22;20021;-80
2022/10/01 00:02:49;;;;;;;10.77;7.32;;;11.40;99.90;;;;;;6272551;22;20012;-80
2022/10/01 00:05:15;;;;;;;12.45;8.27;;;11.30;99.90;;;;;;6270767;22;20020;-80
2022/10/01 00:07:43;;;;;;;10.93;7.78;;;11.30;99.90;;;;;;6271789;22;20019;-81
2022/10/01 00:10:11;;;;;;;10.15;7.32;;;11.30;99.90;;;;;;6270814;22;20018;-80
2022/10/01 00:12:38;;;;;;;9.88;7.82;;;11.30;99.90;;;;;;6272838;22;20039;-80
2022/10/01 00:15:08;;;;;;;11.25;8.07;;;11.20;99.90;;;;;;6269958;22;20015;-81
2022/10/01 00:17:37;;;;;;;11.90;8.57;;;11.20;99.90;;;;;;6271182;22;20380;-80
2022/10/01 00:20:05;;;;;;;11.93;8.98;;;11.10;99.90;;;;;;6272628;22;20138;-80
2022/10/01 00:22:33;;;;;;;12.63;9.60;;;11.10;99.90;;;;;;6269840;22;20020;-80
2022/10/01 00:24:59;;;;;;;13.10;8.77;;;11.10;99.90;;;;;;6270351;22;20016;-81
2022/10/01 00:27:28;;;;;;;10.95;8.60;;;11.10;99.90;;;;;;6270201;22;20024;-80
2022/10/01 00:29:55;;;;;;;12.10;8.82;;;11.10;99.90;;;;;;6244856;22;20464;-80
2022/10/01 00:32:21;;;;;;;11.88;9.63;;;11.10;99.90;;;;;;6270531;22;20055;-81
2022/10/01 00:34:47;;;;;;;11.15;9.30;;;11.10;99.90;;;;;;6272439;22;20042;-80
2022/10/01 00:37:14;;;;;;;11.70;9.50;;;11.00;99.90;;;;;;6271803;22;20118;-80
2022/10/01 00:39:40;;;;;;;11.93;9.65;;;11.00;99.90;;;;;;6270193;22;20117;-80
2022/10/01 00:42:17;;;;;;;16.27;9.63;;;11.00;99.90;;;;;;6270464;22;20012;-80
2022/10/01 00:44:43;;;;;;;12.38;9.50;;;11.00;99.90;;;;;;6270445;22;20488;-81
2022/10/01 00:47:27;;;;;;;12.38;9.43;;;11.00;99.90;;;;;;6270455;22;20020;-81
2022/10/01 00:50:05;;;;;;;13.60;9.70;;;11.00;99.90;;;;;;6270552;22;20348;-80
2022/10/01 00:52:35;;;;;;;12.35;9.13;;;11.00;99.90;;;;;;6269526;22;20038;-80
2022/10/01 00:55:03;;;;;;;14.98;8.85;;;11.20;99.90;;;;;;6271951;22;20436;-81
2022/10/01 00:57:30;;;;;;;13.77;10.02;;;11.00;99.90;;;;;;6270535;22;20094;-80
2022/10/01 01:00:00;;;;;;;14.50;9.85;;;11.00;99.90;;;;;;6270105;22;20019;-80
2022/10/01 01:02:25;;;;;;;12.80;10.02;;;11.00;99.90;;;;;;6271905;22;20444;-80
2022/10/01 01:04:51;;;;;;;13.60;9.80;;;10.90;99.90;;;;;;6244119;22;20046;-80
2022/10/01 01:07:17;;;;;;;12.95;9.73;;;11.00;99.90;;;;;;6270084;22;20174;-80
2022/10/01 01:09:49;;;;;;;16.63;10.45;;;11.00;99.90;;;;;;6270413;22;20012;-80
2022/10/01 01:12:35;;;;;;;15.38;9.23;;;10.90;99.90;;;;;;6271616;22;20444;-80
2022/10/01 01:15:10;;;;;;;13.35;10.20;;;10.90;99.90;;;;;;6271992;22;20012;-80
2022/10/01 01:18:09;;;;;;;12.27;9.32;;;10.90;99.90;;;;;;6269720;22;20027;-80
2022/10/01 01:20:43;;;;;;;14.63;10.30;;;10.90;99.90;;;;;;6268272;22;20015;-80
2022/10/01 01:23:15;;;;;;;13.70;10.27;;;10.90;99.90;;;;;;6244322;22;20019;-80
2022/10/01 01:26:06;;;;;;;12.82;9.25;;;10.90;99.90;;;;;;6269428;22;20054;-80
2022/10/01 01:28:36;;;;;;;14.10;9.82;;;10.90;99.90;;;;;;6269519;22;20034;-80
2022/10/01 01:31:09;;;;;;;14.30;9.80;;;10.90;99.90;;;;;;6244411;22;20463;-80
2022/10/01 01:33:37;;;;;;;13.23;8.80;;;10.90;99.90;;;;;;6269774;22;20450;-80
2022/10/01 01:36:15;;;;;;;13.48;9.52;;;10.90;99.90;;;;;;6269609;22;20016;-80
2022/10/01 01:38:53;;;;;;;14.13;10.48;;;10.90;99.90;;;;;;6271585;22;20023;-80
2022/10/01 01:41:23;;;;;;;14.48;9.85;;;10.90;99.90;;;;;;6271613;22;20024;-80
2022/10/01 01:43:52;;;;;;;12.98;9.70;;;10.90;99.90;;;;;;6270088;22;20026;-81
2022/10/01 01:46:19;;;;;;;12.13;9.98;;;10.80;99.90;;;;;;6271789;22;20008;-81
2022/10/01 01:48:48;;;;;;;13.20;9.57;;;10.90;99.90;;;;;;6269073;22;20287;-80
2022/10/01 01:51:24;;;;;;;13.20;9.95;;;10.80;99.90;;;;;;6273895;22;20087;-81
2022/10/01 01:53:49;;;;;;;13.45;9.93;;;10.80;99.90;;;;;;6246209;22;20012;-81
2022/10/01 01:56:16;;;;;;;13.40;9.75;;;10.80;99.90;;;;;;6246390;22;20018;-81
2022/10/01 01:58:44;;;;;;;14.90;10.32;;;10.80;99.90;;;;;;6271739;22;20047;-81
2022/10/01 02:01:40;;;;;;;15.40;10.43;;;10.80;99.90;;;;;;6273758;22;20497;-82
2022/10/01 02:04:09;;;;;;;13.13;9.38;;;10.80;99.90;;;;;;6273178;22;20019;-81
2022/10/01 02:06:52;;;;;;;11.55;8.85;;;10.80;99.90;;;;;;6272064;22;20234;-81
2022/10/01 02:09:33;;;;;;;11.40;8.80;;;10.80;99.90;;;;;;6246618;22;20239;-81
2022/10/01 02:12:18;;;;;;;16.67;8.75;;;10.80;99.90;;;;;;6274056;22;20008;-80
2022/10/01 02:14:54;;;;;;;;;;;10.80;99.90;;;;;;6272258;22;20023;-81
2022/10/01 02:17:39;;;;;;;10.52;8.10;;;10.90;99.90;;;;;;6271313;22;19911;-81
2022/10/01 02:20:14;;;;;;;12.20;8.85;;;10.80;99.90;;;;;;6271971;22;20483;-81
2022/10/01 02:22:55;;;;;;;12.57;8.65;;;10.80;99.90;;;;;;6273360;22;20007;-81
2022/10/01 02:25:26;;;;;;;14.20;8.68;;;10.80;99.90;;;;;;6271199;22;20086;-81
2022/10/01 02:27:59;;;;;;;11.25;7.70;;;10.80;99.90;;;;;;6271941;22;20004;-81
2022/10/01 02:30:27;;;;;;;12.30;8.02;;;10.80;99.90;;;;;;6271906;22;20044;-81
2022/10/01 02:32:58;;;;;;;13.05;7.18;;;10.80;99.90;;;;;;6245453;22;20441;-81
2022/10/01 02:35:26;;;;;;;10.95;8.43;;;10.80;99.90;;;;;;6273238;22;20530;-82
2022/10/01 02:37:55;;;;;;;10.80;7.70;;;10.80;99.90;;;;;;6271986;22;20019;-81
2022/10/01 02:40:25;;;;;;;11.70;8.30;;;10.80;99.90;;;;;;6271697;22;20015;-81
2022/10/01 02:42:55;;;;;;;9.80;7.72;;;10.80;99.90;;;;;;6272180;22;20020;-82
2022/10/01 02:45:24;;;;;;;11.40;7.22;;;10.80;99.90;;;;;;6272958;22;20023;-81
2022/10/01 02:48:01;;;;;;;11.80;7.65;;;10.80;99.90;;;;;;6271229;22;20015;-82
2022/10/01 02:50:33;;;;;;;9.18;7.10;;;10.80;99.90;;;;;;6271662;22;20391;-82
2022/10/01 02:53:05;;;;;;;10.75;7.05;;;10.80;99.90;;;;;;6273035;22;20413;-81
2022/10/01 02:55:38;;;;;;;9.38;6.82;;;10.80;99.90;;;;;;6272112;22;20087;-82
2022/10/01 02:58:04;;;;;;;9.18;7.20;;;10.80;99.90;;;;;;6271679;22;20072;-81
2022/10/01 03:00:30;;;;;;;10.50;6.68;;;10.80;99.90;;;;;;6273242;22;20015;-81
2022/10/01 03:02:56;;;;;;;8.95;6.75;;;10.90;99.90;;;;;;6245220;22;20024;-81
2022/10/01 03:05:22;;;;;;;9.80;7.15;;;10.80;99.90;;;;;;6245702;22;20018;-82
2022/10/01 03:07:48;;;;;;;10.35;6.85;;;10.90;99.90;;;;;;6271260;22;20345;-81
2022/10/01 03:10:15;;;;;;;9.68;6.40;;;10.90;99.90;;;;;;6273355;22;20015;-81
2022/10/01 03:12:45;;;;;;;8.77;6.05;;;10.90;99.90;;;;;;6245897;22;20016;-81
2022/10/01 03:15:12;;;;;;;9.00;5.63;;;10.90;99.90;;;;;;6270165;22;20012;-82
2022/10/01 03:17:38;;;;;;;8.73;5.65;;;10.90;99.90;;;;;;6273200;22;20012;-81
2022/10/01 03:20:05;;;;;;;8.32;5.55;;;10.90;99.90;;;;;;6245937;22;20384;-81
2022/10/01 03:22:30;;;;;;;8.35;6.07;;;10.90;99.90;;;;;;6272956;22;20011;-81
2022/10/01 03:24:56;;;;;;;9.13;5.38;;;11.10;99.90;;;;;;6271003;22;20065;-81
2022/10/01 03:27:22;;;;;;;9.45;5.22;;;11.00;99.90;;;;;;6271181;22;20086;-81
2022/10/01 03:29:48;;;;;;;6.95;5.38;;;11.00;99.90;;;;;;6272246;22;20019;-81
2022/10/01 03:32:14;;;;;;;7.43;5.03;;;11.00;99.90;;;;;;6270942;22;20008;-81
2022/10/01 03:34:40;;;;;;;8.02;5.18;;;11.00;99.90;;;;;;6245927;22;20086;-81
2022/10/01 03:37:06;;;;;;;7.65;5.28;;;11.00;99.90;;;;;;6272874;22;20067;-81
2022/10/01 03:39:32;;;;;;;12.10;4.85;;;11.00;99.90;;;;;;6245550;22;20034;-81
2022/10/01 03:41:58;;;;;;;6.28;4.65;;;11.10;99.90;;;;;;6273133;22;20371;-81
2022/10/01 03:44:24;;;;;;;6.32;4.35;;;11.00;99.90;;;;;;6270330;22;20012;-81
2022/10/01 03:46:49;;;;;;;7.72;4.43;;;11.10;99.90;;;;;;6272876;22;20349;-81
2022/10/01 03:49:15;;;;;;;6.18;3.72;;;11.00;99.90;;;;;;6272820;22;20321;-81
2022/10/01 03:51:41;;;;;;;5.82;4.15;;;11.10;99.90;;;;;;6272926;22;20083;-81
2022/10/01 03:54:07;;;;;;;6.22;4.10;;;11.00;99.90;;;;;;6272970;22;20014;-81
2022/10/01 03:56:34;;;;;;;5.60;3.92;;;11.00;99.90;;;;;;6271677;22;20375;-81
2022/10/01 03:59:00;;;;;;;7.00;3.85;;;11.10;99.90;;;;;;6272369;22;20432;-81
2022/10/01 04:01:26;;;;;;;6.50;3.00;;;11.10;99.90;;;;;;6271149;22;20069;-81
2022/10/01 04:03:53;;;;;;;6.38;3.10;;;11.10;99.90;;;;;;6271306;22;20384;-81
2022/10/01 04:06:18;;;;;;;7.05;3.40;;;11.10;99.90;;;;;;6271214;22;20011;-81
2022/10/01 04:08:44;;;;;;;4.43;2.47;;;11.10;99.90;;;;;;6270999;22;20453;-81
2022/10/01 04:11:10;;;;;;;4.15;2.55;;;11.10;99.90;;;;;;6270959;22;20108;-81
2022/10/01 04:13:36;;;;;;;5.30;2.38;;;11.10;99.90;;;;;;6271888;22;20108;-80
2022/10/01 04:16:03;;;;;;;6.03;2.90;;;11.10;99.90;;;;;;6272662;22;20011;-81
2022/10/01 04:18:29;;;;;;;4.85;2.40;;;11.20;99.90;;;;;;6272698;22;20016;-81
2022/10/01 04:20:55;;;;;;;4.07;2.38;;;11.10;99.90;;;;;;6272912;22;20008;-81
2022/10/01 04:23:22;;;;;;;6.38;2.80;;;11.20;99.90;;;;;;6272560;22;20015;-81
2022/10/01 04:25:48;;;;;;;6.07;2.55;;;11.20;99.90;;;;;;6245282;22;20019;-81
2022/10/01 04:28:14;;;;;;;4.60;2.25;;;11.20;99.90;;;;;;6271577;22;20367;-81
2022/10/01 04:30:42;;;;;;;5.75;2.92;;;11.10;99.90;;;;;;6270890;22;20016;-81
2022/10/01 04:33:11;;;;;;;4.38;2.40;;;11.20;99.90;;;;;;6245237;22;20254;-81
2022/10/01 04:35:38;;;;;;;4.20;2.42;;;11.20;99.90;;;;;;6270550;22;20436;-81
2022/10/01 04:38:25;;;;;;;4.38;2.45;;;11.20;99.90;;;;;;6270900;22;20026;-81
2022/10/01 04:40:51;;;;;;;4.88;2.95;;;11.10;99.90;;;;;;6271937;22;20014;-80
2022/10/01 04:43:17;;;;;;;5.50;2.78;;;11.20;99.90;;;;;;6270011;22;20393;-81
2022/10/01 04:45:42;;;;;;;4.57;2.47;;;11.20;99.90;;;;;;6272283;22;20012;-80
2022/10/01 04:48:08;;;;;;;4.18;2.70;;;11.20;99.90;;;;;;6272055;22;20008;-80
2022/10/01 04:50:33;;;;;;;4.53;2.50;;;11.20;99.90;;;;;;6269971;22;20051;-81
2022/10/01 04:52:59;;;;;;;4.47;2.28;;;11.20;99.90;;;;;;6244161;22;20386;-80
2022/10/01 04:55:25;;;;;;;5.30;3.15;;;11.20;99.90;;;;;;6269467;22;20089;-80
2022/10/01 04:57:50;;;;;;;4.88;2.78;;;11.20;99.90;;;;;;6269902;22;20011;-81
2022/10/01 05:00:20;;;;;;;4.97;2.80;;;11.20;99.90;;;;;;6271428;22;20012;-80
2022/10/01 05:02:48;;;;;;;4.88;2.50;;;11.20;99.90;;;;;;6272806;22;20023;-81
2022/10/01 05:05:15;;;;;;;4.38;2.95;;;11.20;99.90;;;;;;6272533;22;20425;-80
2022/10/01 05:07:40;;;;;;;5.78;3.25;;;11.20;99.90;;;;;;6272864;22;20012;-80
2022/10/01 05:10:08;;;;;;;5.22;2.63;;;11.30;99.90;;;;;;6273265;22;20011;-80
2022/10/01 05:12:34;;;;;;;5.15;3.42;;;11.30;99.90;;;;;;6270261;22;20018;-80
2022/10/01 05:15:01;;;;;;;4.47;2.88;;;11.30;99.90;;;;;;6272829;22;20007;-81
2022/10/01 05:17:26;;;;;;;4.35;2.80;;;11.30;99.90;;;;;;6272734;22;20011;-80
2022/10/01 05:19:52;;;;;;;7.30;4.55;;;11.30;99.90;;;;;;6270158;22;20014;-81
2022/10/01 05:22:18;;;;;;;10.32;6.75;;;11.30;99.90;;;;;;6271142;22;20048;-81
2022/10/01 05:24:44;;;;;;;6.82;4.00;;;11.30;99.90;;;;;;6246001;22;20023;-81
2022/10/01 05:27:12;;;;;;;5.38;3.15;;;11.40;99.90;;;;;;6273047;22;20023;-81
2022/10/01 05:29:41;;;;;;;4.95;3.03;;;11.40;99.90;;;;;;6271719;22;20016;-81
2022/10/01 05:32:07;;;;;;;5.57;3.72;;;11.40;99.90;;;;;;6271976;22;20086;-81
2022/10/01 05:34:33;;;;;;;5.35;3.50;;;11.40;99.90;;;;;;6271920;22;20050;-80
2022/10/01 05:36:59;;;;;;;5.38;3.70;;;11.40;99.90;;;;;;6271929;22;20049;-81
2022/10/01 05:39:25;;;;;;;7.13;3.88;;;11.40;99.90;;;;;;6271402;22;20015;-82
2022/10/01 05:41:54;;;;;;;8.65;4.22;;;11.40;99.90;;;;;;6272343;22;20050;-81
2022/10/01 05:44:22;;;;;;;6.35;3.88;;;11.40;99.90;;;;;;6270884;22;20383;-81
2022/10/01 05:46:49;;;;;;;5.60;3.88;;;11.50;99.90;;;;;;6274324;22;20116;-81
2022/10/01 05:49:16;;;;;;;5.13;3.75;;;11.50;99.90;;;;;;6271614;22;20016;-82
2022/10/01 05:51:42;;;;;;;5.72;3.90;;;11.50;99.90;;;;;;6271925;22;20018;-81
2022/10/01 05:54:09;;;;;;;6.57;4.50;;;11.50;99.90;;;;;;6271651;22;20012;-81
2022/10/01 05:56:35;;;;;;;5.60;3.97;;;11.50;99.90;;;;;;6272274;22;20008;-81
2022/10/01 05:59:01;;;;;;;7.10;4.32;;;11.50;99.90;;;;;;6272275;22;20090;-82
2022/10/01 06:01:27;;;;;;;6.53;4.93;;;11.50;99.90;;;;;;6271635;22;20035;-81
2022/10/01 06:03:53;;;;;;;8.35;4.40;;;11.60;99.90;;;;;;6272916;22;20012;-81
2022/10/01 06:06:23;;;;;;;6.35;4.57;;;11.60;99.90;;;;;;6273299;22;20018;-81
2022/10/01 06:08:49;;;;;;;7.53;5.10;;;11.60;99.90;;;;;;6246414;22;20479;-81
2022/10/01 06:11:15;;;;;;;6.60;4.88;;;11.60;99.90;;;;;;6274205;22;20015;-81
2022/10/01 06:13:43;;;;;;;6.43;4.90;;;11.70;99.90;;;;;;6274657;22;20015;-82
2022/10/01 06:16:10;;;;;;;7.55;5.55;;;11.70;99.90;;;;;;6274896;22;20016;-81
2022/10/01 06:18:36;;;;;;;7.18;5.50;;;11.70;99.90;;;;;;6275383;22;20031;-81
2022/10/01 06:21:02;;;;;;;7.93;5.45;;;11.70;99.90;;;;;;6274359;22;20015;-81
2022/10/01 06:23:28;;;;;;;8.55;5.40;;;11.70;99.90;;;;;;6271294;22;20364;-82
2022/10/01 06:25:53;;;;;;;8.00;5.25;;;11.70;99.90;;;;;;6273155;22;20077;-82
2022/10/01 06:28:19;;;;;;;9.63;5.30;;;11.80;99.90;;;;;;6275458;22;20016;-82
2022/10/01 06:30:45;;;;;;;9.18;6.25;;;11.70;99.90;;;;;;6275931;22;20012;-82
2022/10/01 06:33:13;;;;;;;9.00;6.05;;;11.80;99.90;;;;;;6248505;22;20016;-85
2022/10/01 06:35:42;;;;;;;9.45;6.47;;;11.70;99.90;;;;;;6277836;22;20468;-84
2022/10/01 06:38:09;;;;;;;9.60;6.18;;;11.80;99.90;;;;;;6275807;22;20041;-82
2022/10/01 06:40:35;;;;;;;11.02;6.50;;;11.80;99.90;;;;;;6275830;22;20010;-81
2022/10/01 06:43:01;;;;;;;8.68;6.57;;;11.90;99.90;;;;;;6274508;22;20057;-81
2022/10/01 06:45:29;;;;;;;8.45;6.70;;;11.90;99.90;;;;;;6276120;22;20024;-81
2022/10/01 06:47:56;;;;;;;10.88;6.57;;;11.90;99.90;;;;;;6274544;22;20425;-81
2022/10/01 06:50:23;;;;;;;10.35;7.03;;;12.00;99.90;;;;;;6274943;22;20396;-81
2022/10/01 06:52:50;;;;;;;14.18;7.65;;;12.10;99.90;;;;;;6277689;22;20062;-83
2022/10/01 06:55:21;;;;;;;9.63;7.60;;;12.10;99.90;;;;;;6278656;22;20019;-82
2022/10/01 06:57:49;;;;;;;12.65;7.47;;;12.10;99.90;;;;;;6276488;22;20012;-81
2022/10/01 07:00:14;;;;;;;17.88;8.48;;;12.20;99.90;;;;;;6276486;22;20016;-82
2022/10/01 07:02:40;;;;;;;12.73;8.02;;;12.30;99.90;;;;;;6278605;22;20047;-84
2022/10/01 07:05:07;;;;;;;10.90;7.95;;;12.30;99.90;;;;;;6272763;22;20102;-81
2022/10/01 07:07:36;;;;;;;14.20;8.02;;;12.30;99.90;;;;;;6273721;22;20062;-80
2022/10/01 07:10:04;;;;;;;13.32;8.32;;;12.30;99.90;;;;;;6274040;22;20506;-79
2022/10/01 07:12:29;;;;;;;8.85;7.78;;;12.40;99.90;;;;;;6271868;22;20467;-78
2022/10/01 07:14:55;;;;;;;12.18;7.75;;;12.50;99.90;;;;;;6272664;22;20012;-79
2022/10/01 07:17:21;;;;;;;13.20;8.27;;;12.60;99.90;;;;;;6274272;22;20022;-80
2022/10/01 07:19:47;;;;;;;8.13;6.43;;;12.60;99.90;;;;;;6271184;22;20035;-80
2022/10/01 07:22:12;;;;;;;11.20;7.18;;;12.70;99.90;;;;;;6272932;22;20007;-80
2022/10/01 07:24:38;;;;;;;12.13;6.13;;;12.70;99.90;;;;;;6274309;22;20378;-79
2022/10/01 07:27:04;;;;;;;18.92;7.18;;;12.70;99.90;;;;;;6271596;22;20473;-79
2022/10/01 07:29:30;;;;;;;12.07;6.95;;;12.70;99.90;;;;;;6273577;22;20380;-79
2022/10/01 07:32:00;;;;;;;8.75;5.63;;;12.70;99.90;;;;;;6273451;22;20012;-79
2022/10/01 07:34:27;;;;;;;10.13;6.10;;;12.80;99.90;;;;;;6272931;22;20016;-82
2022/10/01 07:36:55;;;;;;;12.73;6.13;;;12.80;99.90;;;;;;6271588;22;20026;-81
2022/10/01 07:39:21;;;;;;;10.13;5.70;;;12.80;99.90;;;;;;6271563;22;20019;-79
2022/10/01 07:41:47;;;;;;;8.73;5.03;;;12.80;99.90;;;;;;6273374;22;20020;-81
2022/10/01 07:44:12;;;;;;;10.27;4.68;;;12.80;99.90;;;;;;6273409;22;20022;-80
2022/10/01 07:46:38;;;;;;;7.82;4.38;;;12.80;99.90;;;;;;6270852;22;20039;-80
2022/10/01 07:49:04;;;;;;;6.47;4.30;;;12.70;99.90;;;;;;6273224;22;20062;-80
2022/10/01 07:51:30;;;;;;;9.52;4.63;;;12.70;99.90;;;;;;6270559;22;20008;-80
2022/10/01 07:53:56;;;;;;;9.48;5.03;;;12.60;99.90;;;;;;6270962;22;20012;-79
2022/10/01 07:56:22;;;;;;;11.55;5.05;;;12.60;99.90;;;;;;6272347;22;20015;-80
2022/10/01 07:58:48;;;;;;;8.52;4.38;;;12.60;99.90;;;;;;6270059;22;20223;-79
2022/10/01 08:01:14;;;;;;;10.15;5.43;;;12.50;99.90;;;;;;6272793;22;20064;-80
2022/10/01 08:03:40;;;;;;;8.15;4.95;;;12.60;99.90;;;;;;6272610;22;20012;-79
2022/10/01 08:06:05;;;;;;;13.45;5.18;;;12.60;99.90;;;;;;6272443;22;20487;-78
2022/10/01 08:08:32;;;;;;;11.95;5.10;;;12.60;99.90;;;;;;6270485;22;20015;-78
2022/10/01 08:11:00;;;;;;;12.43;5.28;;;12.60;99.90;;;;;;6270310;22;20358;-78
2022/10/01 08:13:26;;;;;;;11.35;4.50;;;12.70;99.90;;;;;;6272416;22;20016;-78
2022/10/01 08:15:55;;;;;;;12.63;4.85;;;12.70;99.90;;;;;;6272785;22;20015;-79
2022/10/01 08:18:22;;;;;;;13.93;4.20;;;12.70;99.90;;;;;;6272533;22;20049;-78
2022/10/01 08:20:48;;;;;;;14.85;4.13;;;12.80;99.90;;;;;;6272063;22;20018;-78
2022/10/01 08:23:15;;;;;;;12.57;4.85;;;12.80;99.90;;;;;;6270617;22;20024;-79
2022/10/01 08:25:42;;;;;;;8.68;4.57;;;12.90;99.90;;;;;;6272572;22;20069;-78
2022/10/01 08:28:09;;;;;;;10.35;3.83;;;13.00;99.90;;;;;;6270897;22;20020;-79
2022/10/01 08:30:38;;;;;;;13.10;3.75;;;13.00;99.90;;;;;;6270459;22;20152;-79
2022/10/01 08:33:05;;;;;;;10.43;3.05;;;13.10;99.90;;;;;;6269906;22;20024;-79
2022/10/01 08:35:31;;;;;;;9.00;3.17;;;13.10;99.90;;;;;;6270279;22;20016;-83
2022/10/01 08:38:01;;;;;;;8.55;3.88;;;13.10;99.90;;;;;;6270558;22;20088;-82
2022/10/01 08:40:26;;;;;;;6.65;2.80;;;13.10;99.90;;;;;;6272336;22;20623;-81
2022/10/01 08:43:05;;;;;;;10.73;3.50;;;13.20;99.90;;;;;;6272179;22;20078;-80
2022/10/01 08:45:44;;;;;;;10.48;4.75;;;13.20;99.90;;;;;;6272517;22;20012;-81
2022/10/01 08:48:22;;;;;;;12.98;4.07;;;13.30;99.90;;;;;;6244871;22;20042;-81
2022/10/01 08:50:56;;;;;;;15.60;3.85;;;13.30;99.90;;;;;;6269408;22;20012;-80
2022/10/01 08:53:49;;;;;;;11.48;4.25;;;13.40;99.90;;;;;;6272107;22;20007;-80
2022/10/01 08:56:35;;;;;;;20.08;4.50;;;13.50;99.90;;;;;;6273111;22;20012;-81
2022/10/01 08:59:29;;;;;;;13.68;3.90;;;13.50;99.90;;;;;;6272737;22;20023;-82
2022/10/01 09:01:57;;;;;;;16.60;3.92;;;13.70;99.90;;;;;;6274350;22;20012;-83
2022/10/01 09:04:24;;;;;;;9.73;3.30;;;13.80;99.90;;;;;;6274041;22;20003;-82
2022/10/01 09:07:15;;;;;;;14.35;3.70;;;13.90;99.90;;;;;;6272268;22;20018;-83
2022/10/01 09:09:48;;;;;;;15.32;3.22;;;14.00;99.90;;;;;;6249898;22;20012;-83
2022/10/01 09:12:36;;;;;;;15.00;3.40;;;14.20;99.90;;;;;;6271776;22;20015;-83
2022/10/01 09:15:28;;;;;;;17.35;3.15;;;14.40;99.90;;;;;;6274598;22;20035;-89
2022/10/01 09:18:12;;;;;;;13.75;3.05;;;14.60;99.90;;;;;;6248724;22;20042;-88
2022/10/01 09:20:42;;;;;;;17.47;4.30;;;14.80;99.90;;;;;;6276653;22;20027;-86
2022/10/01 09:23:19;;;;;;;13.73;2.80;;;14.90;99.90;;;;;;6274057;22;20011;-84
2022/10/01 09:25:51;;;;;;;18.40;2.97;;;14.90;99.90;;;;;;6275854;22;20016;-86
2022/10/01 09:28:33;;;;;;;14.80;2.60;;;15.00;99.90;;;;;;6275364;22;20019;-86
2022/10/01 09:31:11;;;;;;;15.05;2.90;;;15.10;99.90;;;;;;6277113;22;20085;-86
2022/10/01 09:33:41;;;;;;;15.00;2.35;;;15.20;99.90;;;;;;6274805;22;20095;-86
2022/10/01 09:36:37;;;;;;;12.95;2.53;;;15.10;99.90;;;;;;6275802;22;20091;-86
2022/10/01 09:39:15;;;;;;;12.30;2.53;;;15.00;99.90;;;;;;6274736;22;20015;-86
2022/10/01 09:41:44;;;;;;;12.48;1.63;;;15.00;99.90;;;;;;6276691;22;20513;-89
2022/10/01 09:44:21;;;;;;;11.70;2.10;;;14.90;99.90;;;;;;6273488;22;20016;-81
2022/10/01 09:46:47;;;;;;;8.32;1.77;;;14.80;99.90;;;;;;6270840;22;20012;-81
2022/10/01 09:49:38;;;;;;;7.35;1.77;;;14.80;99.90;;;;;;6272960;22;20018;-82
2022/10/01 09:52:17;;;;;;;10.52;2.25;;;14.80;99.90;;;;;;6272311;22;20007;-85
2022/10/01 09:54:49;;;;;;;12.77;1.80;;;15.10;99.90;;;;;;6272472;22;20008;-84
2022/10/01 09:57:27;;;;;;;11.77;1.80;;;15.30;99.90;;;;;;6273037;22;20429;-85
2022/10/01 09:59:55;;;;;;;10.73;2.28;;;15.50;99.90;;;;;;6273773;22;20043;-85
2022/10/01 10:02:52;;;;;;;10.38;2.92;;;16.00;99.90;;;;;;6245801;22;20099;-82
2022/10/01 10:05:24;;;;;;;14.73;2.10;;;15.80;99.90;;;;;;6274246;22;20070;-83
2022/10/01 10:07:58;;;;;;;15.00;2.05;;;16.10;99.90;;;;;;6274391;22;20449;-84
2022/10/01 10:10:38;;;;;;;14.40;1.52;;;16.30;99.90;;;;;;6274661;22;20094;-83
2022/10/01 10:13:09;;;;;;;11.45;1.60;;;16.50;99.90;;;;;;6248834;22;20037;-84
2022/10/01 10:15:49;;;;;;;9.30;1.42;;;16.70;99.90;;;;;;6275597;22;20019;-84
2022/10/01 10:18:16;;;;;;;7.72;1.30;;;16.70;99.90;;;;;;6248895;22;20019;-83
2022/10/01 10:20:44;;;;;;;10.23;2.15;;;16.70;99.90;;;;;;6273151;22;20022;-83
2022/10/01 10:23:15;;;;;;;10.77;1.40;;;16.60;99.90;;;;;;6248781;22;20016;-83
2022/10/01 10:25:41;;;;;;;8.75;1.40;;;16.50;99.90;;;;;;6277121;22;20008;-83
2022/10/01 10:28:22;;;;;;;8.40;1.45;;;16.20;99.90;;;;;;6277542;22;20086;-82
2022/10/01 10:30:51;;;;;;;10.10;1.25;;;16.00;99.90;;;;;;6273481;22;20016;-84
2022/10/01 10:33:19;;;;;;;7.40;1.25;;;15.70;99.90;;;;;;6274849;22;20440;-83
2022/10/01 10:35:45;;;;;;;3.78;0.65;;;15.50;99.90;;;;;;6275448;22;20167;-84
2022/10/01 10:38:18;;;;;;;8.65;0.70;;;15.10;99.90;;;;;;6274450;22;20016;-83
2022/10/01 10:40:44;;;;;;;3.33;0.77;;;14.70;99.90;;;;;;6273857;22;20015;-82
2022/10/01 10:43:20;;;;;;;5.10;0.63;;;14.40;99.90;;;;;;6271517;22;20324;-82
2022/10/01 10:45:46;;;;;;;4.35;1.00;;;14.20;99.90;;;;;;6273858;22;20035;-82
2022/10/01 10:48:17;;;;;;;3.95;1.02;;;14.30;99.90;;;;;;6273220;22;20065;-82
2022/10/01 10:50:45;;;;;;;6.03;1.38;;;14.00;99.90;;;;;;6248315;22;20016;-83
2022/10/01 10:53:21;;;;;;;3.83;0.95;;;14.00;99.90;;;;;;6274426;22;20413;-83
2022/10/01 10:55:54;;;;;;;4.88;1.15;;;13.90;99.90;;;;;;6272723;22;20103;-82
2022/10/01 10:58:25;;;;;;;4.28;0.88;;;13.90;99.90;;;;;;6276143;22;20233;-83
2022/10/01 11:00:52;;;;;;;4.82;1.15;;;13.90;99.90;;;;;;6273464;22;20039;-82
2022/10/01 11:03:25;;;;;;;6.85;1.20;;;13.80;99.90;;;;;;6274054;22;20043;-84
2022/10/01 11:05:55;;;;;;;7.47;1.35;;;13.80;99.90;;;;;;6275963;22;20015;-84
2022/10/01 11:08:24;;;;;;;7.05;1.13;;;13.80;99.90;;;;;;6275206;22;20460;-82
2022/10/01 11:11:22;;;;;;;6.70;1.17;;;13.80;99.90;;;;;;6272217;22;20008;-82
2022/10/01 11:14:24;;;;;;;7.85;1.40;;;14.00;99.90;;;;;;6273711;22;20074;-82
2022/10/01 11:17:11;;;;;;;5.68;1.38;;;14.40;99.90;;;;;;6273055;22;20011;-82
2022/10/01 11:19:55;;;;;;;7.18;1.38;;;14.20;99.90;;;;;;6271647;22;20047;-80
2022/10/01 11:22:47;;;;;;;7.60;2.80;;;14.30;99.90;;;;;;6273244;22;20012;-81
2022/10/01 11:25:25;;;;;;;6.10;2.40;;;14.40;99.90;;;;;;6271433;22;20022;-81
2022/10/01 11:28:27;;;;;;;7.22;1.35;;;14.50;99.90;;;;;;6272706;22;20016;-81
2022/10/01 11:31:05;;;;;;;14.32;7.75;;;14.70;99.90;;;;;;6272638;22;20007;-81
2022/10/01 11:33:51;;;;;;;13.57;5.10;;;14.90;99.90;;;;;;6272054;22;20016;-81
2022/10/01 11:36:41;;;;;;;9.10;2.33;;;15.10;99.90;;;;;;6273103;22;20012;-81
2022/10/01 11:39:17;;;;;;;9.35;2.22;;;15.40;99.90;;;;;;6272993;22;20448;-81
2022/10/01 11:42:03;;;;;;;12.23;2.40;;;15.50;99.90;;;;;;6271266;22;20019;-81
2022/10/01 11:44:46;;;;;;;6.25;2.15;;;15.60;99.90;;;;;;6270771;22;20098;-80
2022/10/01 11:47:24;;;;;;;10.35;2.75;;;15.60;99.90;;;;;;6245996;22;20015;-81
2022/10/01 11:50:01;;;;;;;5.60;1.75;;;15.80;99.90;;;;;;6274067;22;20016;-81
2022/10/01 11:52:40;;;;;;;11.38;4.50;;;15.80;99.90;;;;;;6273297;22;20021;-81
2022/10/01 12:01:23;;;;;;;5.55;1.45;;;16.00;99.90;;;;;;6248999;22;20248;-81
2022/10/01 12:03:51;;;;;;;9.38;2.90;;;15.90;99.90;;;;;;6273224;22;20628;-82
2022/10/01 12:06:27;;;;;;;10.15;1.63;;;16.00;99.90;;;;;;6272110;22;20023;-81
2022/10/01 12:09:23;;;;;;;15.38;8.38;;;16.10;99.90;;;;;;6273185;22;20015;-82
2022/10/01 12:12:04;;;;;;;15.07;3.72;;;16.20;99.90;;;;;;6239250;22;20088;-81
2022/10/01 12:14:43;;;;;;;12.18;2.42;;;16.30;99.90;;;;;;6247014;22;20018;-81
2022/10/01 12:17:29;;;;;;;11.70;2.88;;;16.30;99.90;;;;;;6273408;22;20444;-84
2022/10/01 12:19:58;;;;;;;9.93;1.88;;;16.30;99.90;;;;;;6272392;22;20073;-81
2022/10/01 12:22:28;;;;;;;10.30;1.75;;;16.30;99.90;;;;;;6272839;22;20128;-82
2022/10/01 12:24:54;;;;;;;11.88;2.53;;;16.20;99.90;;;;;;6273214;22;20023;-84
2022/10/01 12:27:58;;;;;;;9.18;2.65;;;16.20;99.90;;;;;;6272069;22;20019;-82
2022/10/01 12:30:30;;;;;;;8.85;2.42;;;16.00;99.90;;;;;;6274135;22;20023;-82
2022/10/01 12:33:19;;;;;;;11.50;2.47;;;15.90;99.90;;;;;;6274278;22;20449;-82
2022/10/01 12:36:12;;;;;;;15.45;4.25;;;15.90;99.90;;;;;;6275007;22;20019;-82
2022/10/01 12:38:59;;;;;;;11.55;2.10;;;15.90;99.90;;;;;;6273479;22;20438;-81
2022/10/01 12:42:03;;;;;;;13.73;3.08;;;16.00;99.90;;;;;;6272353;22;20026;-86
2022/10/01 12:44:57;;;;;;;11.98;2.40;;;16.20;99.90;;;;;;6156255;23;20017;-84
2022/10/01 12:47:34;;;;;;;8.88;3.78;;;16.40;99.90;;;;;;6175942;23;20533;-82
2022/10/01 12:50:10;;;;;;;11.52;2.33;;;16.60;99.90;;;;;;6154867;23;20017;-85
2022/10/01 12:53:03;;;;;;;6.70;2.25;;;16.60;99.90;;;;;;6178403;23;20017;-83
2022/10/01 12:55:55;;;;;;;11.52;3.30;;;16.60;99.90;;;;;;6178722;23;20017;-84
2022/10/01 12:58:52;;;;;;;10.52;1.50;;;16.70;99.90;;;;;;6154231;23;20096;-84
2022/10/01 13:01:43;;;;;;;9.25;1.40;;;16.90;99.90;;;;;;6179458;23;20036;-82
2022/10/01 13:04:11;;;;;;;9.45;1.40;;;17.10;99.90;;;;;;6176917;23;20032;-81
2022/10/01 13:06:57;;;;;;;8.65;1.38;;;17.30;99.90;;;;;;6179308;23;20023;-81
2022/10/01 13:09:29;;;;;;;9.68;1.92;;;17.40;99.90;;;;;;6180004;23;20092;-81